Time;durP1;ratioP1;P1;durP2;ratioP2;P2;SDS_P1;SDS_P2;PMS_P1;PMS_P2;Temp;Humidity;BMP_temperature;BMP_pressure;BME280_temperature;BME280_humidity;BME280_pressure;Samples;Min_cycle;Max_cycle;Signal;HPM_P1;HPM_P2
2023/07/24 00:02:01;;;;;;;7.62;5.20;;;;;;;28.26;44.51;99409.91;4500707;31;33721;-61
2023/07/24 00:04:30;;;;;;;7.12;4.30;;;;;;;28.26;44.50;99417.28;4500805;31;34264;-61
2023/07/24 00:06:58;;;;;;;7.25;4.43;;;;;;;28.26;44.53;99414.53;4498762;31;34003;-61
2023/07/24 00:09:25;;;;;;;6.62;4.93;;;;;;;28.27;44.53;99413.47;4499518;31;34404;-62
2023/07/24 00:11:53;;;;;;;7.72;4.55;;;;;;;28.26;44.55;99411.78;4499489;31;34680;-61
2023/07/24 00:14:20;;;;;;;10.27;5.00;;;;;;;28.25;44.50;99404.66;4500425;31;34243;-61
2023/07/24 00:16:48;;;;;;;7.65;5.25;;;;;;;28.26;44.49;99406.31;4500799;31;33566;-60
2023/07/24 00:19:16;;;;;;;7.40;4.12;;;;;;;28.26;44.62;99403.56;4500627;31;33210;-61
2023/07/24 00:21:43;;;;;;;7.20;4.87;;;;;;;28.25;44.63;99405.47;4500596;31;34752;-61
2023/07/24 00:24:11;;;;;;;7.12;4.28;;;;;;;28.26;44.64;99406.31;4500455;31;34183;-62
2023/07/24 00:26:38;;;;;;;8.50;4.75;;;;;;;28.25;44.64;99401.91;4500330;31;33552;-57
2023/07/24 00:29:06;;;;;;;6.95;4.62;;;;;;;28.26;44.70;99403.56;4500566;31;33787;-61
2023/07/24 00:31:33;;;;;;;8.30;4.85;;;;;;;28.25;44.67;99396.44;4500311;31;33554;-61
2023/07/24 00:34:02;;;;;;;6.65;4.43;;;;;;;28.25;44.70;99394.50;4500287;31;34090;-62
2023/07/24 00:36:29;;;;;;;8.45;4.82;;;;;;;28.24;44.65;99392.88;4500500;31;34390;-61
2023/07/24 00:38:57;;;;;;;6.47;4.47;;;;;;;28.25;44.71;99396.44;4500501;31;33717;-60
2023/07/24 00:41:25;;;;;;;7.62;4.60;;;;;;;28.25;44.67;99390.94;4500323;31;33702;-61
2023/07/24 00:43:54;;;;;;;6.47;4.23;;;;;;;28.23;44.75;99392.03;4500653;31;34250;-61
2023/07/24 00:46:21;;;;;;;7.97;4.80;;;;;;;28.24;44.69;99381.88;4500436;31;34426;-62
2023/07/24 00:48:50;;;;;;;7.05;4.80;;;;;;;28.23;44.72;99386.56;4500295;31;33981;-62
2023/07/24 00:51:17;;;;;;;8.20;4.82;;;;;;;28.22;44.75;99386.84;4499247;31;33838;-62
2023/07/24 00:53:47;;;;;;;8.93;4.68;;;;;;;28.21;44.80;99375.03;4500409;31;34932;-61
2023/07/24 00:56:16;;;;;;;6.80;4.72;;;;;;;28.22;44.84;99375.87;4499016;31;33755;-61
2023/07/24 00:58:43;;;;;;;7.93;4.43;;;;;;;28.21;44.80;99369.56;4484460;31;33361;-62
2023/07/24 01:01:11;;;;;;;6.55;4.35;;;;;;;28.21;44.78;99375.03;4483328;32;33983;-61
2023/07/24 01:03:39;;;;;;;6.68;3.90;;;;;;;28.21;44.79;99371.44;4483753;32;33742;-62
2023/07/24 01:06:06;;;;;;;5.85;3.95;;;;;;;28.21;44.83;99372.28;4484507;32;34476;-60
2023/07/24 01:08:34;;;;;;;7.45;5.10;;;;;;;28.21;44.81;99368.69;4484472;32;33810;-60
2023/07/24 01:11:16;;;;;;;6.20;4.68;;;;;;;28.21;44.79;99371.44;4484314;32;33605;-59
2023/07/24 01:13:50;;;;;;;9.35;4.72;;;;;;;28.22;44.77;99373.94;4486015;31;34048;-59
2023/07/24 01:16:18;;;;;;;6.85;4.60;;;;;;;28.21;44.84;99383.28;4490909;31;33139;-61
2023/07/24 01:18:46;;;;;;;6.95;4.97;;;;;;;28.20;44.87;99372.53;4490486;31;33819;-61
2023/07/24 01:21:13;;;;;;;7.12;4.85;;;;;;;28.21;44.87;99376.94;4491075;31;33694;-61
2023/07/24 01:23:53;;;;;;;6.82;4.55;;;;;;;28.20;44.69;99373.38;4470098;32;34993;-61
2023/07/24 01:26:21;;;;;;;7.97;4.60;;;;;;;28.20;44.86;99372.53;4484278;32;33747;-60
2023/07/24 01:28:50;;;;;;;;;;;;;;;28.20;44.90;99367.06;4476303;31;34648;-61
2023/07/24 01:31:18;;;;;;;7.43;4.85;;;;;;;28.29;44.81;99364.62;4491687;31;34346;-61
2023/07/24 01:33:47;;;;;;;6.95;4.53;;;;;;;28.20;44.96;99364.31;4492431;31;34795;-60
2023/07/24 01:36:17;;;;;;;7.60;4.95;;;;;;;28.17;45.09;99368.44;4491422;31;34454;-59
2023/07/24 01:38:46;;;;;;;8.73;4.72;;;;;;;28.16;45.14;99360.47;4490764;31;33261;-57
2023/07/24 01:41:13;;;;;;;7.18;4.35;;;;;;;28.14;45.11;99360.72;4486918;31;34774;-61
2023/07/24 01:43:41;;;;;;;6.40;4.62;;;;;;;28.14;45.21;99363.47;4489995;31;34192;-62
2023/07/24 01:46:08;;;;;;;8.68;5.05;;;;;;;28.14;45.27;99368.16;4490992;31;33551;-61
2023/07/24 01:48:36;;;;;;;7.82;5.22;;;;;;;28.14;45.17;99362.66;4491413;31;33913;-53
2023/07/24 01:51:04;;;;;;;7.25;5.00;;;;;;;28.14;45.14;99363.47;4490813;31;33768;-61
2023/07/24 01:53:31;;;;;;;6.50;4.43;;;;;;;28.15;45.11;99361.56;4495061;31;32970;-61
2023/07/24 01:55:59;;;;;;;6.45;4.40;;;;;;;28.15;45.07;99362.38;4499903;31;33557;-61
2023/07/24 01:58:26;;;;;;;7.10;4.10;;;;;;;28.15;45.06;99361.56;4487043;31;34580;-61
2023/07/24 02:00:57;;;;;;;7.00;4.35;;;;;;;28.15;45.13;99361.56;4484325;32;34467;-60
2023/07/24 02:03:24;;;;;;;8.13;4.70;;;;;;;28.14;45.06;99358.00;4484112;32;33788;-61
2023/07/24 02:05:52;;;;;;;5.82;3.95;;;;;;;28.13;45.11;99359.09;4484011;32;33689;-61
2023/07/24 02:08:20;;;;;;;6.03;3.80;;;;;;;28.14;45.05;99359.91;4483910;32;33808;-61
2023/07/24 02:10:50;;;;;;;6.68;4.30;;;;;;;28.14;45.05;99358.00;4483954;32;33856;-61
2023/07/24 02:13:18;;;;;;;7.55;4.82;;;;;;;28.12;45.23;99356.59;4483886;32;34940;-61
2023/07/24 02:15:48;;;;;;;8.65;4.95;;;;;;;28.11;45.26;99361.25;4483684;32;33204;-61
2023/07/24 02:18:15;;;;;;;9.90;4.75;;;;;;;28.13;45.23;99359.09;4483801;32;34489;-61
2023/07/24 02:20:49;;;;;;;6.90;4.72;;;;;;;28.12;45.31;99362.94;4483788;32;33516;-61
2023/07/24 02:23:17;;;;;;;10.90;4.45;;;;;;;28.11;45.50;99352.22;4483806;32;34083;-61
2023/07/24 02:25:44;;;;;;;7.07;4.55;;;;;;;28.10;45.46;99361.53;4483527;32;33755;-52
2023/07/24 02:28:12;;;;;;;7.03;4.55;;;;;;;28.10;45.36;99356.88;4498560;31;33919;-61
2023/07/24 02:30:40;;;;;;;8.65;4.82;;;;;;;28.10;45.38;99351.38;4499095;31;33904;-61
2023/07/24 02:33:07;;;;;;;7.45;4.75;;;;;;;28.10;45.39;99351.38;4499333;31;34201;-61
2023/07/24 02:35:41;;;;;;;7.55;4.20;;;;;;;28.09;45.42;99347.00;4498663;31;32345;-61
2023/07/24 02:38:08;;;;;;;7.82;5.45;;;;;;;28.09;45.33;99352.50;4499369;31;34671;-62
2023/07/24 02:40:40;;;;;;;8.20;5.05;;;;;;;28.10;45.35;99358.81;4498199;31;33652;-61
2023/07/24 02:43:09;;;;;;;6.45;4.25;;;;;;;28.09;45.34;99365.38;4496818;31;34171;-57
2023/07/24 02:45:38;;;;;;;6.28;4.20;;;;;;;28.10;45.36;99365.09;4499007;31;33683;-63
2023/07/24 02:48:06;;;;;;;7.35;4.72;;;;;;;28.11;45.35;99368.66;4499010;31;33848;-59
2023/07/24 02:50:33;;;;;;;8.50;4.53;;;;;;;28.09;45.39;99368.94;4499171;31;33746;-60
2023/07/24 02:53:01;;;;;;;6.93;4.57;;;;;;;28.09;45.39;99368.94;4498973;31;34900;-61
2023/07/24 02:55:29;;;;;;;7.70;5.07;;;;;;;28.08;45.41;99370.03;4498874;31;34391;-62
2023/07/24 02:57:56;;;;;;;7.45;4.50;;;;;;;28.07;45.42;99359.31;4499231;31;33790;-60
2023/07/24 03:00:24;;;;;;;9.00;4.55;;;;;;;28.07;45.39;99362.91;4498896;31;33972;-56
2023/07/24 03:02:55;;;;;;;7.72;4.70;;;;;;;28.06;45.32;99353.03;4499044;31;34772;-60
2023/07/24 03:05:23;;;;;;;7.10;4.75;;;;;;;28.06;45.40;99360.44;4498819;31;33196;-62
2023/07/24 03:07:50;;;;;;;9.50;4.55;;;;;;;28.05;45.34;99354.13;4498656;31;33918;-54
2023/07/24 03:10:18;;;;;;;8.43;4.18;;;;;;;28.04;45.31;99357.97;4485022;31;33934;-59
2023/07/24 03:12:45;;;;;;;7.57;4.28;;;;;;;28.04;45.28;99352.47;4493675;31;33322;-54
2023/07/24 03:15:13;;;;;;;6.12;4.40;;;;;;;28.04;45.27;99348.91;4488773;31;34062;-57
2023/07/24 03:17:40;;;;;;;7.28;4.57;;;;;;;28.04;45.33;99349.72;4492841;31;33690;-59
2023/07/24 03:20:18;;;;;;;6.03;4.28;;;;;;;28.03;45.34;99344.53;4484621;31;34781;-59
2023/07/24 03:22:46;;;;;;;8.20;5.15;;;;;;;28.03;45.28;99344.53;4497591;31;34834;-61
2023/07/24 03:25:13;;;;;;;8.18;5.03;;;;;;;28.02;45.28;99340.94;4498634;31;34332;-59
2023/07/24 03:27:41;;;;;;;7.45;4.82;;;;;;;28.00;45.31;99337.66;4498521;31;33961;-56
2023/07/24 03:30:09;;;;;;;6.37;4.25;;;;;;;28.00;45.31;99348.62;4496576;31;33452;-54
2023/07/24 03:32:37;;;;;;;9.88;4.85;;;;;;;27.99;45.34;99344.22;4485018;32;34055;-61
2023/07/24 03:35:06;;;;;;;8.90;4.62;;;;;;;27.99;45.36;99340.66;4483746;32;33695;-56
2023/07/24 03:37:36;;;;;;;8.70;4.80;;;;;;;27.97;45.35;99339.00;4483847;32;33924;-53
2023/07/24 03:40:04;;;;;;;8.30;4.80;;;;;;;27.97;45.37;99336.25;4485159;32;34758;-51
2023/07/24 03:42:32;;;;;;;7.37;4.62;;;;;;;27.98;45.41;99342.59;4484886;32;34893;-51
2023/07/24 03:45:00;;;;;;;8.27;5.00;;;;;;;27.96;45.40;99342.84;4485347;32;34346;-52
2023/07/24 03:47:28;;;;;;;7.15;4.82;;;;;;;27.95;45.35;99338.44;4485313;32;34499;-54
2023/07/24 03:49:56;;;;;;;6.55;4.37;;;;;;;27.95;45.36;99340.38;4485088;32;33560;-51
2023/07/24 03:52:23;;;;;;;9.52;4.70;;;;;;;27.94;45.31;99334.06;4483891;32;34499;-53
2023/07/24 03:54:52;;;;;;;6.85;4.55;;;;;;;27.94;45.37;99338.72;4483810;32;33522;-56
2023/07/24 03:57:19;;;;;;;6.10;3.95;;;;;;;27.93;45.34;99329.69;4484860;32;33918;-56
2023/07/24 03:59:47;;;;;;;6.20;4.30;;;;;;;27.92;45.37;99333.50;4485053;32;33912;-53
2023/07/24 04:02:14;;;;;;;8.02;4.65;;;;;;;27.92;45.42;99332.66;4484893;32;34802;-61
2023/07/24 04:04:42;;;;;;;7.43;4.60;;;;;;;27.92;45.43;99335.41;4489516;31;33517;-59
2023/07/24 04:07:10;;;;;;;6.32;4.47;;;;;;;27.91;45.40;99336.50;4489457;31;34305;-54
2023/07/24 04:09:37;;;;;;;9.85;4.87;;;;;;;27.91;45.35;99337.31;4489320;31;33954;-58
2023/07/24 04:12:06;;;;;;;6.20;4.10;;;;;;;27.91;45.51;99339.25;4494100;31;33989;-57
2023/07/24 04:14:34;;;;;;;6.55;3.95;;;;;;;27.91;45.52;99344.72;4484838;32;34375;-61
2023/07/24 04:17:01;;;;;;;7.72;4.87;;;;;;;27.90;45.42;99332.13;4492386;31;34745;-61
2023/07/24 04:19:29;;;;;;;9.88;5.22;;;;;;;27.89;45.45;99331.31;4500422;31;34000;-60
2023/07/24 04:21:56;;;;;;;7.93;4.45;;;;;;;27.90;45.42;99337.59;4498018;31;34822;-58
2023/07/24 04:24:24;;;;;;;8.52;4.68;;;;;;;27.90;45.57;99326.62;4484679;32;34390;-58
2023/07/24 04:26:52;;;;;;;7.05;4.50;;;;;;;27.88;45.54;99326.88;4484494;32;33926;-58
2023/07/24 04:29:23;;;;;;;7.70;4.30;;;;;;;27.88;45.71;99321.41;4493098;31;33883;-53
2023/07/24 04:31:51;;;;;;;7.75;4.97;;;;;;;27.89;45.68;99325.00;4500171;31;34014;-56
2023/07/24 04:34:19;;;;;;;7.45;5.10;;;;;;;27.89;45.69;99316.78;4499349;31;34460;-54
2023/07/24 04:36:46;;;;;;;7.50;5.22;;;;;;;27.88;45.83;99324.16;4500559;31;33871;-58
2023/07/24 04:39:13;;;;;;;10.07;5.47;;;;;;;27.87;45.93;99322.50;4497833;31;33979;-54
2023/07/24 04:41:41;;;;;;;8.70;5.28;;;;;;;27.87;46.08;99319.75;4500602;31;34848;-61
2023/07/24 04:44:09;;;;;;;8.65;5.57;;;;;;;27.86;46.27;99320.03;4500329;31;33556;-58
2023/07/24 04:46:36;;;;;;;6.55;4.60;;;;;;;27.83;46.38;99326.03;4500248;31;33888;-60
2023/07/24 04:49:04;;;;;;;9.27;5.12;;;;;;;27.83;46.33;99326.88;4500466;31;33796;-57
2023/07/24 04:51:31;;;;;;;7.60;5.28;;;;;;;27.83;46.27;99317.81;4500265;31;34066;-60
2023/07/24 04:54:02;;;;;;;7.90;5.45;;;;;;;27.84;46.19;99324.94;4500292;31;33261;-57
2023/07/24 04:56:32;;;;;;;;;;;;;;;27.85;46.28;99334.84;4500722;31;33942;-58
2023/07/24 04:58:59;;;;;;;7.50;5.30;;;;;;;27.94;46.03;99331.31;4494308;31;34278;-54
2023/07/24 05:01:27;;;;;;;9.05;5.32;;;;;;;27.87;46.27;99338.94;4484373;32;34006;-53
2023/07/24 05:03:55;;;;;;;7.35;5.03;;;;;;;27.86;46.40;99341.97;4484595;32;33995;-58
2023/07/24 05:06:23;;;;;;;6.62;4.78;;;;;;;27.84;46.54;99339.50;4484400;32;33572;-53
2023/07/24 05:08:52;;;;;;;8.05;5.50;;;;;;;27.85;46.48;99341.16;4484200;32;34225;-53
2023/07/24 05:11:20;;;;;;;9.27;5.18;;;;;;;27.85;46.56;99335.66;4484508;32;34036;-54
2023/07/24 05:13:47;;;;;;;9.32;5.50;;;;;;;27.87;46.56;99338.94;4484403;32;33372;-55
2023/07/24 05:16:15;;;;;;;7.10;4.78;;;;;;;27.87;46.64;99343.63;4484250;32;33411;-53
2023/07/24 05:18:43;;;;;;;10.80;4.90;;;;;;;27.88;46.63;99331.53;4484403;32;34692;-56
2023/07/24 05:21:10;;;;;;;9.13;5.78;;;;;;;27.88;46.82;99331.53;4484367;32;33980;-57
2023/07/24 05:23:39;;;;;;;8.18;5.25;;;;;;;27.87;46.89;99336.22;4483070;32;34081;-53
2023/07/24 05:26:06;;;;;;;7.97;5.28;;;;;;;27.89;47.01;99330.47;4484491;32;33812;-55
2023/07/24 05:28:34;;;;;;;9.90;5.82;;;;;;;27.89;47.26;99336.78;4484353;32;34456;-57
2023/07/24 05:31:04;;;;;;;8.63;5.37;;;;;;;27.89;47.12;99335.97;4484010;32;34840;-51
2023/07/24 05:33:32;;;;;;;10.00;5.68;;;;;;;27.89;47.09;99335.97;4470089;32;33562;-61
2023/07/24 05:36:00;;;;;;;9.00;5.03;;;;;;;27.90;47.15;99337.59;4483134;32;34310;-52
2023/07/24 05:38:27;;;;;;;10.40;5.53;;;;;;;27.90;47.06;99341.16;4484182;32;33653;-58
2023/07/24 05:40:56;;;;;;;9.68;5.68;;;;;;;27.92;46.99;99336.22;4484207;32;34181;-60
2023/07/24 05:43:25;;;;;;;8.82;6.12;;;;;;;27.91;47.41;99326.38;4484222;32;34482;-54
2023/07/24 05:45:52;;;;;;;8.70;5.97;;;;;;;27.92;47.41;99338.16;4492149;31;33635;-55
2023/07/24 05:48:20;;;;;;;11.20;5.82;;;;;;;27.94;47.72;99342.28;4492148;31;34007;-60
2023/07/24 05:50:48;;;;;;;9.75;6.43;;;;;;;27.93;47.62;99337.91;4488255;31;33756;-62
2023/07/24 05:53:15;;;;;;;9.85;6.07;;;;;;;27.94;47.68;99335.97;4484981;31;33654;-60
2023/07/24 05:55:43;;;;;;;9.80;6.05;;;;;;;27.94;47.90;99335.97;4491140;31;33941;-61
2023/07/24 05:58:11;;;;;;;9.25;6.28;;;;;;;27.94;47.83;99330.50;4491603;31;34742;-59
2023/07/24 06:00:38;;;;;;;9.18;5.78;;;;;;;27.96;47.84;99328.31;4492463;31;34230;-56
2023/07/24 06:03:06;;;;;;;8.35;4.97;;;;;;;27.95;47.77;99324.75;4490234;31;33624;-61
2023/07/24 06:05:35;;;;;;;10.43;5.57;;;;;;;27.96;47.57;99309.09;4492002;31;33817;-60
2023/07/24 06:08:04;;;;;;;11.25;6.43;;;;;;;27.97;47.46;99308.81;4487742;31;33651;-59
2023/07/24 06:10:32;;;;;;;8.88;5.93;;;;;;;28.00;47.47;99312.97;4490854;31;34076;-54
2023/07/24 06:12:59;;;;;;;8.73;5.55;;;;;;;28.01;47.51;99313.78;4491992;31;33659;-58
2023/07/24 06:15:27;;;;;;;7.90;5.70;;;;;;;28.00;47.45;99309.41;4488930;31;34516;-57
2023/07/24 06:17:54;;;;;;;10.00;5.32;;;;;;;28.02;47.32;99310.75;4490538;31;33955;-60
2023/07/24 06:20:22;;;;;;;9.55;5.80;;;;;;;28.02;47.36;99312.69;4497180;31;34781;-59
2023/07/24 06:22:49;;;;;;;9.48;5.72;;;;;;;28.03;47.38;99317.09;4498509;31;33503;-60
2023/07/24 06:25:17;;;;;;;9.88;6.50;;;;;;;28.03;47.40;99317.09;4499559;31;33954;-61
2023/07/24 06:27:45;;;;;;;7.60;5.37;;;;;;;28.03;47.62;99317.91;4491307;31;34668;-61
2023/07/24 06:30:12;;;;;;;8.30;5.57;;;;;;;28.04;47.58;99307.78;4483616;32;34009;-61
2023/07/24 06:32:43;;;;;;;8.85;5.45;;;;;;;28.05;47.33;99318.47;4483678;32;34576;-64
2023/07/24 06:35:11;;;;;;;8.07;5.65;;;;;;;28.07;47.42;99320.94;4483463;32;34220;-62
2023/07/24 06:37:38;;;;;;;6.93;5.07;;;;;;;28.06;47.48;99317.38;4483613;32;34026;-61
2023/07/24 06:40:07;;;;;;;9.23;5.50;;;;;;;28.08;47.60;99323.41;4482248;32;32934;-62
2023/07/24 06:42:34;;;;;;;8.98;5.95;;;;;;;28.08;47.60;99317.94;4482149;32;34731;-61
2023/07/24 06:45:02;;;;;;;7.72;5.55;;;;;;;28.09;47.56;99319.56;4482554;32;33840;-60
2023/07/24 06:47:33;;;;;;;7.53;5.53;;;;;;;28.10;47.61;99328.63;4483481;32;34899;-59
2023/07/24 06:50:02;;;;;;;8.82;6.03;;;;;;;28.10;47.74;99323.13;4483285;32;34923;-50
2023/07/24 06:52:29;;;;;;;9.93;5.85;;;;;;;28.10;47.92;99315.72;4483299;32;34352;-55
2023/07/24 06:54:58;;;;;;;12.27;6.00;;;;;;;28.12;47.93;99309.97;4483153;31;33515;-54
2023/07/24 06:57:25;;;;;;;12.25;6.43;;;;;;;28.12;47.89;99315.47;4483253;32;34588;-52
2023/07/24 06:59:53;;;;;;;10.50;6.53;;;;;;;28.13;47.80;99312.47;4495137;31;34106;-51
2023/07/24 07:02:22;;;;;;;8.48;5.70;;;;;;;28.13;47.71;99314.37;4497334;31;34503;-52
2023/07/24 07:04:50;;;;;;;10.65;5.40;;;;;;;28.14;47.61;99316.84;4488479;31;33065;-50
2023/07/24 07:07:17;;;;;;;9.80;5.85;;;;;;;28.14;47.55;99311.38;4492530;31;34068;-55
2023/07/24 07:09:45;;;;;;;8.75;5.75;;;;;;;28.13;47.58;99306.97;4491517;31;34107;-56
2023/07/24 07:12:12;;;;;;;13.07;5.93;;;;;;;28.14;47.50;99305.06;4485524;32;33693;-56
2023/07/24 07:14:40;;;;;;;11.80;5.40;;;;;;;28.15;47.40;99298.47;4485492;32;33940;-55
2023/07/24 07:17:07;;;;;;;7.93;5.68;;;;;;;28.14;47.34;99303.12;4491871;31;34273;-57
2023/07/24 07:19:36;;;;;;;8.95;5.55;;;;;;;28.14;47.28;99297.66;4486322;31;34997;-56
2023/07/24 07:22:03;;;;;;;10.52;6.03;;;;;;;28.15;47.23;99291.06;4485281;32;33780;-53
2023/07/24 07:24:31;;;;;;;7.55;4.90;;;;;;;28.15;47.15;99285.56;4483558;32;34781;-58
2023/07/24 07:27:00;;;;;;;12.10;5.72;;;;;;;28.15;47.14;99282.00;4485425;32;33646;-52
2023/07/24 07:29:27;;;;;;;9.73;5.75;;;;;;;28.16;47.11;99276.25;4485102;32;34545;-56
2023/07/24 07:31:55;;;;;;;9.45;5.90;;;;;;;28.17;47.09;99279.84;4484950;32;33780;-56
2023/07/24 07:34:23;;;;;;;8.95;5.87;;;;;;;28.17;47.05;99277.09;4484920;32;33617;-55
2023/07/24 07:36:51;;;;;;;9.77;5.55;;;;;;;28.16;47.02;99269.94;4484187;32;33879;-55
2023/07/24 07:39:19;;;;;;;7.87;5.40;;;;;;;28.16;46.95;99265.28;4482983;32;34013;-57
2023/07/24 07:41:47;;;;;;;10.63;5.75;;;;;;;28.18;46.93;99270.50;4483612;32;34114;-56
2023/07/24 07:44:14;;;;;;;8.57;5.28;;;;;;;28.17;46.91;99264.19;4483558;32;33762;-52
2023/07/24 07:46:42;;;;;;;8.18;5.05;;;;;;;28.17;46.87;99271.63;4483832;32;33637;-53
2023/07/24 07:49:09;;;;;;;6.62;4.70;;;;;;;28.18;46.76;99268.59;4484202;32;34441;-56
2023/07/24 07:51:37;;;;;;;9.23;5.28;;;;;;;28.18;46.72;99262.28;4484362;32;33606;-50
2023/07/24 07:54:05;;;;;;;9.77;5.53;;;;;;;28.20;46.67;99266.38;4495149;31;34405;-59
2023/07/24 07:56:32;;;;;;;8.07;4.97;;;;;;;28.20;46.66;99271.88;4500439;31;33982;-59
2023/07/24 07:59:00;;;;;;;7.75;4.65;;;;;;;28.20;46.60;99273.78;4501126;31;34260;-60
2023/07/24 08:01:27;;;;;;;9.77;5.53;;;;;;;28.20;46.54;99269.13;4499689;31;34558;-59
2023/07/24 08:03:55;;;;;;;9.85;5.43;;;;;;;28.22;46.48;99263.38;4500797;31;33916;-60
2023/07/24 08:06:24;;;;;;;11.82;4.60;;;;;;;28.21;46.46;99265.31;4500481;31;34851;-59
2023/07/24 08:08:51;;;;;;;8.93;5.43;;;;;;;28.21;46.43;99270.78;4500482;31;35128;-58
2023/07/24 08:11:19;;;;;;;8.88;5.00;;;;;;;28.20;46.37;99266.38;4500523;31;33509;-60
2023/07/24 08:13:46;;;;;;;11.93;4.87;;;;;;;28.22;46.34;99263.38;4500188;31;33770;-55
2023/07/24 08:16:18;;;;;;;8.77;5.20;;;;;;;28.22;46.29;99258.72;4500854;31;33896;-58
2023/07/24 08:18:47;;;;;;;9.07;4.93;;;;;;;28.23;46.22;99270.50;4500657;31;34003;-60
2023/07/24 08:21:15;;;;;;;8.30;5.03;;;;;;;28.23;46.19;99270.50;4499549;31;33531;-58
2023/07/24 08:23:42;;;;;;;8.55;5.72;;;;;;;28.23;46.18;99256.81;4500139;31;33734;-58
2023/07/24 08:26:10;;;;;;;7.30;4.82;;;;;;;28.23;46.15;99254.87;4500651;31;34697;-58
2023/07/24 08:28:41;;;;;;;10.02;5.12;;;;;;;28.23;46.12;99260.38;4500489;31;34314;-59
2023/07/24 08:31:09;;;;;;;8.48;4.60;;;;;;;28.23;46.08;99265.84;4500657;31;34564;-59
2023/07/24 08:33:37;;;;;;;8.13;5.20;;;;;;;28.24;46.06;99269.41;4500335;31;34718;-60
2023/07/24 08:36:06;;;;;;;7.47;4.57;;;;;;;28.23;46.04;99268.59;4500524;31;34734;-60
2023/07/24 08:38:34;;;;;;;8.70;5.17;;;;;;;28.23;46.00;99263.09;4499253;31;34550;-54
2023/07/24 08:41:03;;;;;;;8.60;4.70;;;;;;;28.25;46.00;99256.53;4500384;31;34590;-56
2023/07/24 08:43:31;;;;;;;8.55;5.22;;;;;;;28.24;46.00;99252.94;4500024;31;34824;-56
2023/07/24 08:45:59;;;;;;;7.93;4.93;;;;;;;28.25;45.95;99259.25;4500517;31;34070;-59
2023/07/24 08:48:30;;;;;;;6.68;4.62;;;;;;;28.25;45.93;99245.53;4500580;31;33858;-56
2023/07/24 08:50:58;;;;;;;8.23;5.20;;;;;;;28.23;45.90;99243.09;4500475;31;33594;-56
2023/07/24 08:53:25;;;;;;;6.97;4.40;;;;;;;28.25;45.82;99240.88;4499921;31;34104;-57
2023/07/24 08:55:54;;;;;;;8.43;5.07;;;;;;;28.25;45.79;99240.88;4500428;31;33789;-59
2023/07/24 08:58:22;;;;;;;7.85;4.90;;;;;;;28.25;45.78;99238.13;4498955;31;33859;-57
2023/07/24 09:00:51;;;;;;;6.75;4.87;;;;;;;28.25;45.78;99243.62;4500445;31;33403;-60
2023/07/24 09:03:19;;;;;;;7.62;4.87;;;;;;;28.25;45.74;99231.81;4500071;31;33863;-59
2023/07/24 09:05:47;;;;;;;6.65;4.70;;;;;;;28.27;45.69;99221.41;4499048;31;33754;-58
2023/07/24 09:08:14;;;;;;;7.45;5.03;;;;;;;28.25;45.70;99218.94;4499093;31;34937;-56
2023/07/24 09:10:42;;;;;;;7.72;4.53;;;;;;;28.26;45.69;99225.25;4493749;31;33681;-56
2023/07/24 09:13:11;;;;;;;6.90;4.70;;;;;;;28.26;45.65;99225.25;4493066;31;34660;-57
2023/07/24 09:15:43;;;;;;;6.25;4.43;;;;;;;28.26;45.65;99217.84;4495956;31;34410;-57
2023/07/24 09:18:10;;;;;;;8.80;5.28;;;;;;;28.27;45.58;99210.44;4487414;31;34322;-57
2023/07/24 09:20:40;;;;;;;6.70;4.57;;;;;;;28.26;45.58;99212.38;4484324;32;33593;-58
2023/07/24 09:23:10;;;;;;;7.47;4.80;;;;;;;28.26;45.58;99209.63;4484489;32;33902;-58
2023/07/24 09:25:44;;;;;;;5.90;4.37;;;;;;;28.27;45.56;99207.72;4483431;32;34012;-56
2023/07/24 09:28:12;;;;;;;7.70;4.97;;;;;;;28.26;45.55;99209.63;4498418;31;34098;-58
2023/07/24 09:30:40;;;;;;;7.10;4.55;;;;;;;28.27;45.53;99207.72;4500028;31;33808;-57
2023/07/24 09:33:08;;;;;;;6.07;3.97;;;;;;;28.27;45.52;99214.00;4499954;31;33971;-57
2023/07/24 09:35:35;;;;;;;7.45;4.75;;;;;;;28.26;45.49;99206.88;4500198;31;34751;-55
2023/07/24 09:38:07;;;;;;;6.47;4.47;;;;;;;28.26;45.48;99212.38;4500083;31;34742;-53
2023/07/24 09:40:45;;;;;;;7.35;4.47;;;;;;;28.26;45.49;99204.16;4500141;31;33242;-51
2023/07/24 09:43:21;;;;;;;6.45;4.07;;;;;;;28.29;45.46;99189.03;4500121;31;33963;-55
2023/07/24 09:46:06;;;;;;;7.93;4.30;;;;;;;28.27;45.55;99188.50;4500101;31;34375;-59
2023/07/24 09:48:35;;;;;;;7.28;4.53;;;;;;;28.28;45.57;99190.97;4500144;31;33779;-59
2023/07/24 09:51:11;;;;;;;7.45;4.87;;;;;;;28.27;45.57;99183.84;4498815;31;34059;-56
2023/07/24 09:53:45;;;;;;;6.57;4.10;;;;;;;28.28;45.57;99173.69;4498773;31;33645;-57
2023/07/24 09:56:13;;;;;;;9.50;5.07;;;;;;;28.28;45.52;99160.78;4497135;31;33820;-53
2023/07/24 09:58:40;;;;;;;7.55;4.53;;;;;;;28.28;45.53;99157.22;4498112;31;33946;-55
2023/07/24 10:01:08;;;;;;;7.35;4.87;;;;;;;28.29;45.50;99153.38;4499930;31;33476;-56
2023/07/24 10:03:44;;;;;;;8.05;5.10;;;;;;;28.27;45.49;99152.84;4499929;31;34403;-58
2023/07/24 10:06:11;;;;;;;7.12;4.47;;;;;;;28.28;45.47;99158.03;4498627;31;34807;-56
2023/07/24 10:08:39;;;;;;;6.97;4.37;;;;;;;28.28;45.42;99149.81;4499743;31;34000;-57
2023/07/24 10:11:13;;;;;;;8.18;4.97;;;;;;;28.29;45.41;99145.97;4499745;31;34603;-55
2023/07/24 10:13:41;;;;;;;10.52;4.50;;;;;;;28.29;45.41;99143.22;4499633;31;33907;-57
2023/07/24 10:16:09;;;;;;;7.20;4.43;;;;;;;28.28;45.39;99141.59;4499385;31;33867;-56
2023/07/24 10:18:45;;;;;;;8.57;4.57;;;;;;;28.29;45.36;99134.16;4498310;31;35033;-55
2023/07/24 10:21:13;;;;;;;7.53;4.50;;;;;;;28.29;45.34;99135.00;4499473;31;33255;-58
2023/07/24 10:23:42;;;;;;;6.75;4.75;;;;;;;28.30;45.31;99130.31;4499507;31;34608;-51
2023/07/24 10:26:14;;;;;;;7.50;4.60;;;;;;;28.29;45.31;99125.94;4499651;31;33998;-58
2023/07/24 10:28:48;;;;;;;8.98;4.12;;;;;;;28.30;45.23;99114.69;4498271;31;34187;-57
2023/07/24 10:31:20;;;;;;;7.43;4.78;;;;;;;28.30;45.23;99122.09;4499497;31;34047;-53
2023/07/24 10:33:49;;;;;;;6.47;4.35;;;;;;;28.30;45.20;99111.13;4499263;31;34030;-52
2023/07/24 10:36:22;;;;;;;7.07;4.37;;;;;;;28.29;45.20;99096.59;4499659;31;34207;-52
2023/07/24 10:38:56;;;;;;;7.97;4.82;;;;;;;28.29;45.19;99107.56;4500260;31;33169;-58
2023/07/24 10:41:34;;;;;;;8.00;4.30;;;;;;;28.30;45.17;99100.97;4501097;31;34109;-54
2023/07/24 10:44:02;;;;;;;6.60;4.43;;;;;;;28.30;45.14;99097.41;4501242;31;34542;-51
2023/07/24 10:46:39;;;;;;;7.07;4.30;;;;;;;28.31;45.12;99096.31;4501088;31;34937;-49
2023/07/24 10:49:08;;;;;;;6.35;4.10;;;;;;;28.31;45.12;99097.16;4501311;31;34196;-53
2023/07/24 10:51:37;;;;;;;6.87;4.03;;;;;;;28.30;45.09;99114.69;4501267;31;34421;-56
2023/07/24 10:54:05;;;;;;;7.20;4.50;;;;;;;28.31;45.08;99112.78;4501134;31;34727;-56
2023/07/24 10:56:33;;;;;;;7.07;4.40;;;;;;;28.31;45.04;99110.03;4501129;31;34067;-51
2023/07/24 10:59:04;;;;;;;7.62;5.03;;;;;;;28.30;45.06;99095.47;4501195;31;34061;-55
2023/07/24 11:01:32;;;;;;;9.18;5.22;;;;;;;28.30;45.08;99091.91;4499860;31;33461;-59
2023/07/24 11:04:01;;;;;;;8.77;5.55;;;;;;;28.30;45.10;99084.50;4491723;31;33618;-56
2023/07/24 11:06:28;;;;;;;11.73;6.00;;;;;;;28.31;45.74;99091.66;4485378;32;34737;-59
2023/07/24 11:08:58;;;;;;;10.50;6.25;;;;;;;28.31;46.23;99090.84;4484036;32;33595;-62
2023/07/24 11:11:32;;;;;;;12.98;7.45;;;;;;;28.33;46.56;99083.97;4485591;32;33569;-58
2023/07/24 11:14:01;;;;;;;10.38;7.93;;;;;;;28.35;47.04;99086.44;4485133;32;33841;-54
2023/07/24 11:16:33;;;;;;;12.00;7.68;;;;;;;28.37;47.08;99074.13;4484354;32;34626;-60
2023/07/24 11:19:01;;;;;;;9.73;7.40;;;;;;;28.38;47.22;99073.00;4484351;32;34166;-58
2023/07/24 11:21:30;;;;;;;14.25;7.37;;;;;;;28.42;47.43;99084.25;4485109;32;33565;-57
2023/07/24 11:23:58;;;;;;;10.73;6.87;;;;;;;28.43;47.55;99072.19;4491139;31;34258;-56
2023/07/24 11:26:26;;;;;;;13.30;7.45;;;;;;;28.45;47.72;99065.31;4500330;31;33555;-61
2023/07/24 11:28:54;;;;;;;12.90;7.57;;;;;;;28.47;47.77;99062.28;4499551;31;34840;-60
2023/07/24 11:31:21;;;;;;;12.13;7.93;;;;;;;28.47;47.80;99046.66;4498012;31;33655;-60
2023/07/24 11:33:50;;;;;;;11.32;7.20;;;;;;;28.50;48.03;99034.31;4492837;31;33898;-59
2023/07/24 11:36:18;;;;;;;12.73;7.80;;;;;;;28.50;48.06;99034.31;4478685;31;34062;-59
2023/07/24 11:38:46;;;;;;;12.15;7.65;;;;;;;28.50;48.12;99026.06;4477372;31;33976;-58